Time;durP1;ratioP1;P1;durP2;ratioP2;P2;SDS_P1;SDS_P2;PMS_P1;PMS_P2;Temp;Humidity;BMP_temperature;BMP_pressure;BME280_temperature;BME280_humidity;BME280_pressure;Samples;Min_cycle;Max_cycle;Signal;HPM_P1;HPM_P2
2023/06/16 00:00:36;;;;;;;9.48;8.70;;;20.70;56.20;;;;;;4993401;28;20180;-84
2023/06/16 00:03:02;;;;;;;9.75;9.10;;;20.60;56.50;;;;;;4992946;28;20205;-83
2023/06/16 00:05:31;;;;;;;8.57;7.97;;;20.60;56.80;;;;;;4994421;28;20188;-85
2023/06/16 00:08:00;;;;;;;9.05;8.45;;;20.60;56.80;;;;;;4989065;28;20688;-84
2023/06/16 00:10:26;;;;;;;9.13;8.43;;;20.70;56.30;;;;;;4976597;28;20201;-83
2023/06/16 00:12:52;;;;;;;9.10;8.38;;;20.70;56.00;;;;;;4973571;28;20210;-84
2023/06/16 00:15:19;;;;;;;9.07;8.38;;;20.70;55.90;;;;;;4990983;28;20186;-84
2023/06/16 00:17:46;;;;;;;8.80;8.20;;;20.40;57.00;;;;;;4991892;28;20178;-84
2023/06/16 00:20:14;;;;;;;9.30;8.60;;;20.40;57.20;;;;;;4991189;28;20188;-83
2023/06/16 00:22:41;;;;;;;9.02;8.27;;;20.50;56.80;;;;;;4991923;28;20227;-84
2023/06/16 00:25:08;;;;;;;8.77;8.15;;;20.60;56.30;;;;;;4992290;28;20209;-84
2023/06/16 00:27:35;;;;;;;9.18;8.48;;;20.70;56.10;;;;;;4995615;28;20194;-83
2023/06/16 00:30:03;;;;;;;9.07;8.38;;;20.60;56.10;;;;;;4994933;28;20205;-86
2023/06/16 00:32:29;;;;;;;8.85;8.23;;;20.50;56.60;;;;;;4995038;28;20223;-84
2023/06/16 00:34:54;;;;;;;9.63;8.88;;;20.60;56.30;;;;;;4996947;28;20193;-83
2023/06/16 00:37:20;;;;;;;8.70;8.20;;;20.50;56.40;;;;;;4995750;28;20173;-84
2023/06/16 00:39:46;;;;;;;8.82;8.13;;;20.60;56.00;;;;;;4995926;28;20185;-84
2023/06/16 00:42:11;;;;;;;9.20;8.60;;;20.50;56.60;;;;;;4996223;28;20204;-84
2023/06/16 00:44:37;;;;;;;9.35;8.75;;;20.40;56.80;;;;;;4996770;28;20603;-84
2023/06/16 00:47:03;;;;;;;9.55;8.88;;;20.40;56.60;;;;;;4996770;28;20187;-83
2023/06/16 00:49:29;;;;;;;8.73;8.02;;;20.30;56.90;;;;;;4996242;28;20177;-84
2023/06/16 00:51:55;;;;;;;9.18;8.50;;;20.20;57.40;;;;;;4996774;28;20244;-84
2023/06/16 00:54:21;;;;;;;9.23;8.63;;;20.10;57.10;;;;;;4995642;28;20185;-83
2023/06/16 00:56:47;;;;;;;9.25;8.65;;;20.10;57.40;;;;;;4997008;28;20210;-84
2023/06/16 00:59:13;;;;;;;8.95;8.25;;;20.10;57.40;;;;;;4996941;28;20183;-84
2023/06/16 01:01:39;;;;;;;9.05;8.15;;;20.00;57.80;;;;;;4996419;28;20209;-84
2023/06/16 01:04:05;;;;;;;8.95;8.35;;;20.00;57.90;;;;;;4997898;28;20241;-84
2023/06/16 01:06:43;;;;;;;8.90;8.30;;;19.80;58.50;;;;;;4997757;28;20176;-84
2023/06/16 01:09:18;;;;;;;9.30;8.55;;;19.90;58.00;;;;;;4982533;28;20234;-84
2023/06/16 01:11:55;;;;;;;8.73;8.13;;;19.90;57.80;;;;;;4974486;28;20226;-83
2023/06/16 01:14:35;;;;;;;9.85;9.05;;;19.90;57.60;;;;;;4988440;28;20184;-83
2023/06/16 01:17:05;;;;;;;9.23;8.43;;;19.90;57.90;;;;;;4991318;28;20199;-84
2023/06/16 01:19:42;;;;;;;9.05;8.38;;;19.80;58.00;;;;;;4991636;28;20201;-84
2023/06/16 01:22:45;;;;;;;9.25;8.60;;;19.70;58.30;;;;;;4994354;28;20202;-83
2023/06/16 01:25:14;;;;;;;9.73;8.95;;;19.70;58.20;;;;;;4974886;28;20187;-83
2023/06/16 01:27:47;;;;;;;8.63;8.02;;;19.70;58.20;;;;;;4974930;28;20841;-83
2023/06/16 01:30:15;;;;;;;9.63;8.93;;;19.60;58.70;;;;;;4978845;28;20214;-83
2023/06/16 01:32:43;;;;;;;10.32;9.30;;;19.60;59.40;;;;;;4996234;28;20270;-84
2023/06/16 01:35:10;;;;;;;9.10;8.50;;;19.60;58.50;;;;;;4999653;28;20214;-85
2023/06/16 01:37:38;;;;;;;8.82;8.23;;;19.50;58.70;;;;;;5000994;28;20181;-83
2023/06/16 01:40:05;;;;;;;9.45;8.85;;;19.50;58.40;;;;;;5000853;28;20330;-83
2023/06/16 01:42:31;;;;;;;8.82;8.25;;;19.50;58.80;;;;;;5000120;28;20209;-85
2023/06/16 01:44:57;;;;;;;9.30;8.70;;;19.30;59.30;;;;;;5001236;28;20188;-86
2023/06/16 01:47:24;;;;;;;9.43;8.80;;;19.30;59.20;;;;;;5002257;28;20187;-84
2023/06/16 01:49:50;;;;;;;9.15;8.55;;;19.30;59.10;;;;;;5001558;28;20179;-83
2023/06/16 01:52:16;;;;;;;9.45;8.70;;;19.40;59.00;;;;;;5001195;28;20416;-84
2023/06/16 01:54:42;;;;;;;9.40;8.70;;;19.40;58.80;;;;;;4989622;28;20211;-85
2023/06/16 01:57:08;;;;;;;9.48;8.77;;;19.30;59.20;;;;;;5001675;28;20274;-83
2023/06/16 01:59:33;;;;;;;9.23;8.63;;;19.20;59.30;;;;;;5011154;28;20172;-85
2023/06/16 02:02:05;;;;;;;9.00;8.38;;;19.30;59.50;;;;;;4999463;28;20218;-84
2023/06/16 02:04:32;;;;;;;9.50;8.77;;;19.30;58.70;;;;;;4998203;28;20251;-84
2023/06/16 02:07:07;;;;;;;10.25;9.38;;;19.20;58.70;;;;;;4996288;28;20186;-85
2023/06/16 02:09:35;;;;;;;9.30;8.68;;;19.20;58.60;;;;;;4996133;28;20270;-84
2023/06/16 02:12:02;;;;;;;9.25;8.40;;;19.10;58.90;;;;;;4993630;28;20221;-83
2023/06/16 02:14:30;;;;;;;9.38;8.57;;;19.10;58.80;;;;;;4993895;28;20177;-84
2023/06/16 02:16:56;;;;;;;8.98;8.38;;;19.10;59.10;;;;;;4993970;28;20182;-84
2023/06/16 02:19:22;;;;;;;9.50;8.80;;;19.10;58.90;;;;;;4994361;28;20174;-84
2023/06/16 02:21:47;;;;;;;9.75;9.02;;;19.10;59.00;;;;;;4995078;28;20301;-84
2023/06/16 02:24:13;;;;;;;9.93;9.13;;;18.90;59.60;;;;;;4996807;28;20237;-84
2023/06/16 02:26:39;;;;;;;9.50;8.80;;;18.90;59.80;;;;;;4996521;28;20259;-84
2023/06/16 02:29:05;;;;;;;9.27;8.68;;;18.80;59.60;;;;;;4999323;28;20186;-85
2023/06/16 02:31:31;;;;;;;9.07;8.48;;;18.90;59.50;;;;;;4999377;28;20262;-83
2023/06/16 02:33:57;;;;;;;8.93;8.32;;;18.90;59.70;;;;;;4999107;28;20174;-83
2023/06/16 02:36:23;;;;;;;9.50;8.90;;;18.80;60.10;;;;;;4999099;28;20209;-83
2023/06/16 02:38:49;;;;;;;9.10;8.40;;;18.60;60.30;;;;;;4998730;28;20225;-84
2023/06/16 02:41:15;;;;;;;10.38;8.93;;;18.60;60.80;;;;;;4999416;28;20178;-84
2023/06/16 02:43:41;;;;;;;13.70;9.63;;;18.50;61.20;;;;;;4998125;28;20190;-84
2023/06/16 02:46:07;;;;;;;14.77;9.55;;;18.50;61.00;;;;;;4999921;28;20186;-84
2023/06/16 02:48:33;;;;;;;13.32;9.20;;;18.60;60.50;;;;;;4995895;28;20181;-83
2023/06/16 02:50:59;;;;;;;9.48;8.73;;;18.60;60.40;;;;;;4996121;28;20242;-84
2023/06/16 02:53:25;;;;;;;10.07;9.05;;;18.60;60.70;;;;;;4996400;28;20206;-84
2023/06/16 02:55:55;;;;;;;9.70;9.00;;;18.50;61.20;;;;;;4997163;28;20829;-83
2023/06/16 02:58:22;;;;;;;8.93;8.32;;;18.50;61.00;;;;;;4998055;28;20592;-84
2023/06/16 03:00:47;;;;;;;9.10;8.43;;;18.50;61.30;;;;;;4996672;28;20182;-85
2023/06/16 03:03:14;;;;;;;9.65;8.77;;;18.50;60.70;;;;;;4997114;28;20240;-84
2023/06/16 03:05:43;;;;;;;9.02;8.43;;;18.50;60.90;;;;;;4995577;28;20182;-85
2023/06/16 03:08:09;;;;;;;9.73;9.02;;;18.40;61.20;;;;;;4992070;28;20273;-84
2023/06/16 03:10:35;;;;;;;9.32;8.73;;;18.30;61.40;;;;;;4994100;28;20217;-83
2023/06/16 03:13:00;;;;;;;9.90;9.02;;;18.20;61.90;;;;;;4994120;28;20206;-85
2023/06/16 03:15:27;;;;;;;8.65;8.05;;;18.20;62.80;;;;;;4993817;28;20178;-84
2023/06/16 03:17:53;;;;;;;9.20;8.60;;;18.20;61.90;;;;;;4993178;28;20178;-83
2023/06/16 03:20:19;;;;;;;9.50;8.70;;;18.20;61.50;;;;;;4996009;28;20187;-84
2023/06/16 03:22:45;;;;;;;10.75;9.57;;;18.20;61.50;;;;;;4999494;28;20220;-83
2023/06/16 03:25:10;;;;;;;9.45;8.82;;;18.10;61.80;;;;;;4999420;28;20178;-85
2023/06/16 03:27:40;;;;;;;9.57;8.77;;;18.10;61.80;;;;;;4999212;28;20216;-83
2023/06/16 03:30:07;;;;;;;9.18;8.40;;;18.00;62.80;;;;;;5001794;28;20245;-84
2023/06/16 03:32:33;;;;;;;8.70;8.10;;;17.80;63.50;;;;;;5000268;28;20625;-84
2023/06/16 03:35:02;;;;;;;9.57;8.77;;;17.80;63.20;;;;;;5000197;28;20329;-84
2023/06/16 03:37:27;;;;;;;9.73;8.93;;;17.80;63.30;;;;;;5000299;28;20194;-84
2023/06/16 03:39:53;;;;;;;11.27;9.05;;;17.90;62.90;;;;;;5000254;28;20181;-84
2023/06/16 03:42:19;;;;;;;9.48;8.63;;;17.90;62.80;;;;;;4999350;28;20221;-83
2023/06/16 03:44:45;;;;;;;10.73;9.23;;;18.00;62.40;;;;;;4997457;28;20184;-81
2023/06/16 03:47:11;;;;;;;9.27;8.55;;;17.90;62.50;;;;;;4994476;28;20284;-82
2023/06/16 03:49:37;;;;;;;21.88;10.75;;;17.80;63.00;;;;;;4995686;28;20185;-82
2023/06/16 03:52:03;;;;;;;25.90;10.68;;;17.80;62.90;;;;;;4995661;28;20210;-82
2023/06/16 03:54:29;;;;;;;10.20;9.15;;;17.90;62.90;;;;;;4994487;28;20194;-84
2023/06/16 03:56:55;;;;;;;18.15;9.55;;;17.90;62.80;;;;;;4995489;28;20186;-82
2023/06/16 03:59:21;;;;;;;29.20;11.05;;;17.90;62.60;;;;;;4995349;28;20188;-83
2023/06/16 04:01:50;;;;;;;40.40;12.32;;;17.90;62.90;;;;;;4992729;28;20198;-82
2023/06/16 04:04:16;;;;;;;10.68;9.30;;;17.80;63.20;;;;;;4986069;28;20186;-83
2023/06/16 04:06:43;;;;;;;11.88;9.25;;;17.80;63.20;;;;;;4989476;28;20974;-82
2023/06/16 04:09:09;;;;;;;9.68;8.75;;;17.80;63.50;;;;;;4990128;28;20278;-82
2023/06/16 04:11:40;;;;;;;14.35;9.05;;;17.80;63.40;;;;;;4991035;28;20222;-82
2023/06/16 04:14:06;;;;;;;9.50;8.57;;;17.80;63.30;;;;;;4989363;28;20178;-82
2023/06/16 04:16:31;;;;;;;9.70;8.70;;;17.70;63.70;;;;;;4991965;28;20230;-81
2023/06/16 04:18:57;;;;;;;9.18;8.48;;;17.70;63.80;;;;;;4986257;28;20171;-81
2023/06/16 04:21:23;;;;;;;20.08;10.45;;;17.80;64.00;;;;;;4974449;28;20911;-82
2023/06/16 04:23:48;;;;;;;13.07;8.20;;;17.70;64.50;;;;;;4974670;28;20259;-82
2023/06/16 04:26:21;;;;;;;9.00;8.40;;;17.70;64.60;;;;;;4974503;28;20197;-81
2023/06/16 04:28:53;;;;;;;9.50;8.68;;;17.70;64.30;;;;;;4974479;28;20711;-82
2023/06/16 04:31:21;;;;;;;9.10;8.40;;;17.70;64.20;;;;;;4988582;28;20231;-82
2023/06/16 04:33:47;;;;;;;9.10;8.45;;;17.80;64.00;;;;;;4991799;28;20212;-81
2023/06/16 04:36:14;;;;;;;9.23;8.52;;;17.80;63.80;;;;;;4992230;28;20430;-80
2023/06/16 04:38:40;;;;;;;9.48;8.70;;;17.80;64.10;;;;;;4993752;28;20238;-83
2023/06/16 04:41:06;;;;;;;12.68;9.05;;;17.80;64.30;;;;;;4993421;28;20184;-80
2023/06/16 04:43:32;;;;;;;8.65;7.95;;;17.70;65.80;;;;;;4992976;28;20858;-81
2023/06/16 04:45:58;;;;;;;10.23;9.10;;;17.70;65.10;;;;;;4993074;28;20221;-82
2023/06/16 04:48:25;;;;;;;8.90;8.30;;;17.60;65.20;;;;;;4994728;28;20196;-80
2023/06/16 04:50:53;;;;;;;9.10;8.40;;;17.70;65.70;;;;;;4997515;28;20188;-83
2023/06/16 04:53:20;;;;;;;9.35;8.63;;;17.70;65.90;;;;;;4998545;28;20208;-84
2023/06/16 04:55:46;;;;;;;9.80;8.85;;;17.60;66.90;;;;;;4998313;28;20185;-84
2023/06/16 04:58:11;;;;;;;9.23;8.52;;;17.70;66.10;;;;;;4994557;28;20289;-83
2023/06/16 05:00:37;;;;;;;9.82;9.02;;;17.80;65.40;;;;;;4989182;28;20195;-83
2023/06/16 05:03:03;;;;;;;10.43;9.45;;;17.80;66.30;;;;;;4988364;28;20290;-82
2023/06/16 05:05:29;;;;;;;9.70;9.00;;;17.80;64.60;;;;;;4995559;28;20205;-80
2023/06/16 05:07:55;;;;;;;10.05;9.32;;;17.90;64.40;;;;;;5000720;28;20183;-83
2023/06/16 05:10:20;;;;;;;10.10;9.30;;;18.00;64.40;;;;;;4983103;28;20873;-82
2023/06/16 05:12:46;;;;;;;9.73;9.02;;;18.10;65.30;;;;;;4993421;28;20201;-80
2023/06/16 05:15:12;;;;;;;10.40;9.43;;;18.10;65.20;;;;;;4994780;28;20295;-80
2023/06/16 05:17:38;;;;;;;10.10;9.20;;;18.20;65.00;;;;;;5001699;28;20167;-82
2023/06/16 05:20:04;;;;;;;10.00;9.15;;;18.30;65.60;;;;;;4996999;28;20188;-83
2023/06/16 05:22:30;;;;;;;11.40;9.70;;;18.40;65.70;;;;;;4994088;28;20229;-83
2023/06/16 05:24:57;;;;;;;12.27;10.32;;;18.40;64.10;;;;;;4979886;28;20179;-83
2023/06/16 05:27:26;;;;;;;37.45;12.43;;;18.60;63.80;;;;;;4980832;28;20548;-82
2023/06/16 05:29:52;;;;;;;23.42;11.38;;;18.70;63.70;;;;;;4990831;28;20348;-83
2023/06/16 05:32:21;;;;;;;11.38;10.30;;;18.70;63.50;;;;;;4998291;28;20217;-82
2023/06/16 05:34:49;;;;;;;10.68;9.88;;;18.70;64.80;;;;;;4998294;28;20856;-83
2023/06/16 05:37:18;;;;;;;9.77;8.85;;;18.70;65.10;;;;;;4999104;28;20186;-84
2023/06/16 05:39:45;;;;;;;11.00;10.10;;;18.80;64.40;;;;;;4998881;28;20188;-82
2023/06/16 05:42:14;;;;;;;11.18;10.10;;;18.90;63.90;;;;;;4997179;28;20237;-82
2023/06/16 05:44:44;;;;;;;12.65;9.25;;;19.00;63.70;;;;;;4995940;28;20258;-81
2023/06/16 05:47:10;;;;;;;17.25;10.63;;;19.10;63.60;;;;;;4998078;28;20830;-82
2023/06/16 05:49:36;;;;;;;14.35;10.48;;;19.00;63.80;;;;;;4975066;28;20190;-80
2023/06/16 05:52:04;;;;;;;12.95;10.20;;;19.10;64.00;;;;;;4980022;28;20218;-81
2023/06/16 05:54:30;;;;;;;14.35;10.48;;;19.20;64.00;;;;;;4981266;28;20604;-82
2023/06/16 05:56:56;;;;;;;11.02;9.90;;;19.30;63.80;;;;;;4979028;28;20278;-82
2023/06/16 05:59:22;;;;;;;10.68;9.98;;;19.50;64.10;;;;;;4979648;28;20206;-82
2023/06/16 06:01:51;;;;;;;11.68;10.77;;;19.50;62.90;;;;;;4975819;28;20241;-83
2023/06/16 06:04:20;;;;;;;11.20;10.23;;;19.60;63.50;;;;;;4975321;28;20235;-82
2023/06/16 06:06:46;;;;;;;12.55;11.43;;;19.80;60.60;;;;;;4978975;28;20721;-82
2023/06/16 06:09:11;;;;;;;11.27;10.23;;;19.90;62.20;;;;;;4982760;28;20191;-82
2023/06/16 06:11:37;;;;;;;11.00;10.15;;;19.90;62.00;;;;;;4995132;28;20541;-85
2023/06/16 06:14:03;;;;;;;11.75;10.75;;;20.00;60.20;;;;;;4996432;28;20179;-86
2023/06/16 06:16:30;;;;;;;12.07;10.88;;;20.10;58.10;;;;;;5000224;28;20168;-86
2023/06/16 06:18:56;;;;;;;11.52;10.02;;;20.20;55.40;;;;;;4998617;28;20187;-85
2023/06/16 06:21:22;;;;;;;12.00;10.77;;;20.20;56.40;;;;;;4998087;28;20264;-85
2023/06/16 06:23:48;;;;;;;11.60;10.55;;;20.20;56.30;;;;;;4999637;28;20219;-86
2023/06/16 06:26:14;;;;;;;11.98;9.68;;;20.30;57.00;;;;;;4998721;28;20181;-84
2023/06/16 06:28:40;;;;;;;10.07;9.38;;;20.50;54.30;;;;;;4999097;28;20183;-85
2023/06/16 06:31:05;;;;;;;10.95;10.10;;;20.60;54.20;;;;;;4999099;28;20193;-84
2023/06/16 06:33:31;;;;;;;10.65;9.85;;;20.70;54.30;;;;;;5001107;28;20202;-84
2023/06/16 06:35:58;;;;;;;10.80;9.85;;;20.80;54.40;;;;;;5000573;28;20212;-85
2023/06/16 06:38:23;;;;;;;11.20;10.13;;;20.80;55.10;;;;;;4998824;28;20552;-85
2023/06/16 06:40:49;;;;;;;11.85;10.88;;;20.90;53.20;;;;;;4995675;28;20180;-84
2023/06/16 06:43:15;;;;;;;11.82;10.25;;;20.90;52.00;;;;;;4996803;28;20293;-85
2023/06/16 06:45:41;;;;;;;12.63;11.52;;;21.00;52.10;;;;;;4997990;28;20197;-83
2023/06/16 06:48:07;;;;;;;12.38;11.30;;;21.00;51.20;;;;;;4995022;28;20189;-85
2023/06/16 06:50:32;;;;;;;11.82;10.98;;;21.10;50.70;;;;;;4996497;28;20182;-84
2023/06/16 06:52:58;;;;;;;11.25;10.43;;;21.20;50.80;;;;;;4993717;28;20214;-85
2023/06/16 06:55:24;;;;;;;11.52;10.73;;;21.30;50.90;;;;;;4996780;28;20182;-86
2023/06/16 06:57:50;;;;;;;11.23;10.32;;;21.50;50.70;;;;;;4996512;28;20174;-85
2023/06/16 07:00:16;;;;;;;12.55;11.50;;;21.60;52.10;;;;;;4998439;28;20174;-85
2023/06/16 07:02:42;;;;;;;12.32;11.43;;;21.50;49.40;;;;;;4997451;28;20202;-83
2023/06/16 07:05:08;;;;;;;11.57;10.65;;;21.50;48.50;;;;;;4998404;28;20188;-85
2023/06/16 07:07:34;;;;;;;16.40;11.88;;;21.60;50.20;;;;;;4994693;28;20613;-85
2023/06/16 07:10:00;;;;;;;12.90;11.48;;;21.70;50.10;;;;;;4978615;28;20211;-85
2023/06/16 07:12:26;;;;;;;12.65;11.75;;;21.80;48.90;;;;;;4977864;28;20207;-85
2023/06/16 07:14:52;;;;;;;12.40;11.60;;;21.80;47.20;;;;;;4985157;28;20186;-86
2023/06/16 07:17:18;;;;;;;11.88;10.93;;;21.90;47.40;;;;;;4997841;28;20277;-85
2023/06/16 07:19:44;;;;;;;11.73;10.90;;;22.00;49.20;;;;;;4998007;28;20194;-85
2023/06/16 07:22:09;;;;;;;11.68;10.95;;;22.00;49.60;;;;;;4997051;28;20823;-85
2023/06/16 07:24:36;;;;;;;11.10;10.25;;;21.70;48.80;;;;;;4997295;28;20197;-84
2023/06/16 07:27:02;;;;;;;10.98;10.07;;;21.70;50.40;;;;;;4997186;28;20217;-87
2023/06/16 07:29:28;;;;;;;11.32;10.63;;;21.90;51.40;;;;;;4997188;28;20177;-85
2023/06/16 07:31:54;;;;;;;12.70;11.63;;;22.20;49.80;;;;;;4995311;28;20213;-86
2023/06/16 07:34:20;;;;;;;12.32;11.43;;;22.30;49.40;;;;;;4994569;28;20590;-84
2023/06/16 07:36:46;;;;;;;12.68;11.68;;;22.30;48.60;;;;;;4995391;28;20170;-85
2023/06/16 07:39:15;;;;;;;13.13;12.13;;;22.30;48.30;;;;;;4994469;28;20186;-87
2023/06/16 07:41:41;;;;;;;13.15;11.80;;;22.50;47.70;;;;;;4995262;28;20195;-86
2023/06/16 07:44:07;;;;;;;12.55;11.55;;;22.50;47.70;;;;;;4993486;28;20196;-87
2023/06/16 07:46:33;;;;;;;12.52;11.32;;;22.50;47.70;;;;;;4994541;28;20190;-85
2023/06/16 07:48:58;;;;;;;12.60;11.48;;;22.60;47.70;;;;;;4992963;28;20265;-86
2023/06/16 07:51:25;;;;;;;14.52;12.38;;;22.50;48.00;;;;;;4991273;28;20229;-85
2023/06/16 07:53:50;;;;;;;12.65;11.65;;;22.80;46.70;;;;;;4993855;28;20196;-85
2023/06/16 07:56:18;;;;;;;13.27;12.27;;;22.80;46.80;;;;;;4994460;28;20202;-85
2023/06/16 07:58:44;;;;;;;16.40;13.15;;;22.90;45.90;;;;;;4994015;28;20587;-85
2023/06/16 08:01:10;;;;;;;13.43;12.20;;;22.90;45.70;;;;;;4993234;28;20217;-85
2023/06/16 08:03:36;;;;;;;13.18;12.25;;;22.80;45.90;;;;;;5000255;28;20838;-86
2023/06/16 08:06:03;;;;;;;14.05;13.07;;;22.90;44.50;;;;;;4997375;28;20178;-86
2023/06/16 08:08:29;;;;;;;14.23;12.98;;;23.10;44.00;;;;;;4996517;28;20174;-85
2023/06/16 08:10:58;;;;;;;14.25;13.38;;;23.30;43.30;;;;;;4996004;28;20240;-84
2023/06/16 08:13:24;;;;;;;13.80;12.77;;;23.50;41.80;;;;;;4995932;28;20859;-86
2023/06/16 08:15:50;;;;;;;14.27;12.95;;;23.60;41.90;;;;;;5006411;28;20210;-85
2023/06/16 08:18:20;;;;;;;15.18;13.88;;;23.70;42.00;;;;;;4995486;28;20244;-85
2023/06/16 08:20:47;;;;;;;15.77;14.63;;;23.90;41.50;;;;;;4996885;28;20654;-85
2023/06/16 08:23:13;;;;;;;14.30;13.45;;;24.00;40.60;;;;;;4995881;28;20210;-87
2023/06/16 08:25:38;;;;;;;14.40;13.57;;;24.00;41.10;;;;;;5000330;28;20174;-85
2023/06/16 08:28:07;;;;;;;15.57;14.55;;;24.10;40.10;;;;;;4999217;28;20550;-86
2023/06/16 08:30:33;;;;;;;16.15;15.15;;;24.10;40.20;;;;;;4999112;28;20186;-85
2023/06/16 08:32:58;;;;;;;16.23;15.05;;;24.10;39.70;;;;;;4998971;28;20202;-86
2023/06/16 08:35:24;;;;;;;14.98;13.93;;;24.20;39.10;;;;;;4996789;28;20189;-85
2023/06/16 08:37:50;;;;;;;15.88;14.85;;;24.30;39.50;;;;;;4996410;28;20177;-85
2023/06/16 08:40:16;;;;;;;17.08;15.77;;;24.20;39.50;;;;;;4998088;28;20265;-85
2023/06/16 08:42:44;;;;;;;18.27;17.20;;;24.50;39.20;;;;;;4997827;28;20198;-86
2023/06/16 08:45:10;;;;;;;17.27;16.27;;;24.70;36.80;;;;;;4997868;28;20190;-86
2023/06/16 08:47:39;;;;;;;17.55;16.42;;;24.90;36.70;;;;;;4995453;28;20225;-86
2023/06/16 08:50:09;;;;;;;18.48;17.27;;;24.70;37.20;;;;;;4995191;28;20284;-86
2023/06/16 08:52:39;;;;;;;18.08;16.88;;;24.90;36.50;;;;;;4994921;28;20217;-86
2023/06/16 08:55:12;;;;;;;18.65;17.33;;;25.00;37.00;;;;;;4994238;28;20179;-86
2023/06/16 08:57:46;;;;;;;17.17;16.17;;;25.10;36.20;;;;;;4994877;28;20174;-85
2023/06/16 09:00:13;;;;;;;17.30;16.30;;;25.20;35.70;;;;;;4997736;28;20190;-85
2023/06/16 09:02:41;;;;;;;18.15;17.10;;;25.30;34.70;;;;;;4997634;28;20194;-85
2023/06/16 09:05:11;;;;;;;17.95;16.85;;;25.30;35.90;;;;;;4998568;28;20178;-87
2023/06/16 09:07:39;;;;;;;17.70;16.70;;;25.60;35.30;;;;;;4994764;28;20175;-85
2023/06/16 09:10:05;;;;;;;17.67;16.48;;;25.80;34.90;;;;;;4989930;28;20245;-86
2023/06/16 09:12:31;;;;;;;17.40;16.50;;;25.70;34.20;;;;;;4997672;28;20202;-86
2023/06/16 09:14:57;;;;;;;17.63;16.60;;;25.80;34.80;;;;;;4997434;28;20631;-86
2023/06/16 09:17:30;;;;;;;17.58;16.67;;;25.90;33.80;;;;;;4996741;28;20637;-86
2023/06/16 09:19:56;;;;;;;18.33;17.20;;;26.30;33.40;;;;;;4997202;28;20197;-85
2023/06/16 09:22:26;;;;;;;17.92;16.88;;;26.50;31.50;;;;;;4997037;28;20206;-86
2023/06/16 09:25:03;;;;;;;19.88;18.42;;;26.60;30.50;;;;;;4996044;28;20162;-85
2023/06/16 09:27:50;;;;;;;19.23;17.63;;;26.90;30.10;;;;;;4996004;28;20267;-86
2023/06/16 09:30:18;;;;;;;20.10;19.00;;;27.00;30.00;;;;;;4996664;28;20818;-85
2023/06/16 09:32:53;;;;;;;22.70;21.60;;;27.10;29.10;;;;;;4995104;28;20207;-84
2023/06/16 09:35:31;;;;;;;20.80;19.77;;;27.20;28.30;;;;;;4997312;28;20178;-87
2023/06/16 09:37:59;;;;;;;19.60;18.60;;;27.40;28.60;;;;;;4995631;28;20741;-86
2023/06/16 09:40:27;;;;;;;23.13;21.88;;;27.70;29.10;;;;;;4996482;28;20666;-85
2023/06/16 09:42:57;;;;;;;23.45;22.13;;;27.70;28.00;;;;;;4994587;28;20742;-85
2023/06/16 09:45:35;;;;;;;22.27;21.27;;;27.80;27.50;;;;;;4993254;28;20183;-86
2023/06/16 09:48:11;;;;;;;23.98;22.73;;;27.90;26.70;;;;;;4993704;28;20745;-86
2023/06/16 09:50:37;;;;;;;26.92;25.75;;;28.00;27.60;;;;;;4993146;28;20538;-85
2023/06/16 09:53:08;;;;;;;23.45;22.25;;;28.20;26.30;;;;;;4994271;28;20232;-85
2023/06/16 09:55:37;;;;;;;22.95;21.95;;;27.90;25.80;;;;;;4994825;28;20178;-85
2023/06/16 09:58:06;;;;;;;23.88;22.77;;;28.10;26.50;;;;;;4996372;28;20185;-86
2023/06/16 10:00:32;;;;;;;24.27;23.15;;;28.10;26.10;;;;;;4996192;28;20198;-86
2023/06/16 10:03:00;;;;;;;23.60;22.50;;;28.10;25.70;;;;;;4995273;28;20210;-86
2023/06/16 10:05:28;;;;;;;24.38;23.08;;;28.10;25.90;;;;;;4996311;28;20300;-85
2023/06/16 10:07:57;;;;;;;23.55;22.52;;;28.30;25.90;;;;;;4991092;28;20179;-85
2023/06/16 10:10:29;;;;;;;24.42;23.27;;;28.40;24.90;;;;;;4976640;28;20183;-85
2023/06/16 10:12:56;;;;;;;25.17;24.10;;;28.50;25.00;;;;;;4990917;28;20214;-86
2023/06/16 10:15:25;;;;;;;24.05;23.05;;;28.60;24.50;;;;;;4995508;28;20555;-85
2023/06/16 10:17:53;;;;;;;22.48;21.38;;;28.60;23.90;;;;;;4996398;28;20175;-86
2023/06/16 10:20:23;;;;;;;24.58;23.40;;;28.40;23.90;;;;;;4995752;28;20187;-86
2023/06/16 10:22:50;;;;;;;25.98;24.63;;;28.70;24.20;;;;;;4995459;28;20661;-85
2023/06/16 10:25:17;;;;;;;29.35;27.63;;;28.80;23.70;;;;;;4995705;28;20182;-85
2023/06/16 10:27:44;;;;;;;28.85;27.25;;;29.20;24.40;;;;;;4994779;28;20228;-88
2023/06/16 10:30:16;;;;;;;27.08;25.67;;;29.50;23.60;;;;;;4989962;28;20273;-84
2023/06/16 10:32:49;;;;;;;27.98;26.67;;;29.70;22.80;;;;;;4991594;28;20889;-84
2023/06/16 10:35:17;;;;;;;27.45;26.15;;;29.40;23.40;;;;;;4990534;28;20179;-84
2023/06/16 10:37:47;;;;;;;28.27;26.77;;;29.40;23.60;;;;;;4991829;28;20233;-86
2023/06/16 10:40:14;;;;;;;25.95;24.90;;;29.50;24.40;;;;;;4990497;28;20775;-84
2023/06/16 10:42:40;;;;;;;26.15;24.70;;;29.70;23.90;;;;;;4992194;28;20214;-85
2023/06/16 10:45:26;;;;;;;24.65;23.45;;;29.70;24.10;;;;;;4994227;28;20189;-87
2023/06/16 10:48:01;;;;;;;24.50;23.30;;;30.10;24.10;;;;;;4991250;28;20710;-87
2023/06/16 10:50:30;;;;;;;24.45;23.45;;;30.20;24.00;;;;;;4992578;28;20168;-86
2023/06/16 10:53:07;;;;;;;26.27;25.08;;;30.30;23.20;;;;;;4992854;28;20563;-88
2023/06/16 10:55:36;;;;;;;27.13;25.80;;;30.50;23.10;;;;;;4985955;28;20201;-87
2023/06/16 10:58:18;;;;;;;26.27;24.80;;;30.30;23.80;;;;;;4989381;28;20179;-86
2023/06/16 11:00:45;;;;;;;26.23;25.08;;;30.50;23.50;;;;;;4991916;28;20238;-86
2023/06/16 11:03:12;;;;;;;26.58;25.13;;;30.80;23.40;;;;;;4996319;28;20222;-90
2023/06/16 11:05:41;;;;;;;25.80;24.60;;;31.00;23.80;;;;;;4996210;28;20214;-89
2023/06/16 11:08:08;;;;;;;25.63;24.33;;;31.10;23.20;;;;;;4992039;28;20182;-88
2023/06/16 11:10:51;;;;;;;25.50;24.17;;;31.40;23.30;;;;;;4988256;28;20290;-88
2023/06/16 11:13:25;;;;;;;24.95;23.75;;;31.80;23.20;;;;;;4995945;28;20278;-88
2023/06/16 11:15:53;;;;;;;25.27;24.08;;;31.60;22.00;;;;;;4997231;28;20646;-88
2023/06/16 11:18:26;;;;;;;25.50;24.30;;;31.70;22.50;;;;;;4996747;28;20179;-89
2023/06/16 11:20:56;;;;;;;25.77;24.77;;;31.50;22.50;;;;;;4998122;28;20178;-88
2023/06/16 11:23:22;;;;;;;28.02;26.75;;;31.80;22.90;;;;;;4995376;28;20284;-89
2023/06/16 11:25:49;;;;;;;29.15;27.95;;;32.10;22.30;;;;;;5003317;28;20191;-86
2023/06/16 11:28:18;;;;;;;27.92;26.52;;;32.20;21.70;;;;;;4996254;28;20201;-84
2023/06/16 11:30:44;;;;;;;27.30;26.00;;;32.10;22.20;;;;;;4998828;28;20182;-87
2023/06/16 11:33:12;;;;;;;28.92;27.25;;;32.10;22.30;;;;;;5002016;28;20256;-89
2023/06/16 11:35:41;;;;;;;26.27;25.08;;;31.40;22.60;;;;;;4995914;28;20195;-88
2023/06/16 11:38:07;;;;;;;24.85;23.65;;;30.70;22.70;;;;;;4989710;28;20674;-87
2023/06/16 11:40:35;;;;;;;25.05;23.95;;;30.10;23.70;;;;;;4990880;28;20204;-90
2023/06/16 11:43:05;;;;;;;26.55;25.35;;;30.20;23.80;;;;;;4992112;28;20536;-85
2023/06/16 11:45:33;;;;;;;24.85;23.55;;;30.80;23.40;;;;;;4974905;28;20186;-86
2023/06/16 11:48:02;;;;;;;26.38;25.15;;;31.50;22.60;;;;;;4974561;28;21032;-85
2023/06/16 11:50:28;;;;;;;26.65;25.45;;;31.70;22.00;;;;;;4979532;28;20814;-86
2023/06/16 11:52:54;;;;;;;26.00;24.90;;;32.00;22.00;;;;;;4984066;28;20260;-88
2023/06/16 11:55:21;;;;;;;27.20;26.00;;;32.20;22.10;;;;;;4980534;28;20286;-87
2023/06/16 11:57:47;;;;;;;26.65;25.38;;;31.90;21.70;;;;;;4983791;28;20213;-85
2023/06/16 12:00:14;;;;;;;26.38;25.10;;;32.00;22.10;;;;;;4978808;28;20634;-87
2023/06/16 12:02:42;;;;;;;26.20;24.85;;;32.10;21.80;;;;;;4980944;28;20224;-85
2023/06/16 12:05:15;;;;;;;27.15;25.95;;;32.40;22.20;;;;;;4990448;28;20198;-86
2023/06/16 12:07:42;;;;;;;28.80;27.13;;;32.40;22.00;;;;;;4989544;28;20194;-86
2023/06/16 12:10:08;;;;;;;28.02;26.83;;;32.40;21.40;;;;;;4983292;28;20190;-86
2023/06/16 12:12:38;;;;;;;29.88;28.45;;;32.80;21.40;;;;;;4987571;28;20266;-84
2023/06/16 12:15:04;;;;;;;29.02;27.63;;;32.30;21.50;;;;;;4986646;28;20182;-86
2023/06/16 12:17:33;;;;;;;30.10;28.38;;;32.70;21.20;;;;;;4988714;28;20194;-86
2023/06/16 12:19:59;;;;;;;30.58;29.33;;;32.70;21.20;;;;;;4983361;28;20213;-84
2023/06/16 12:22:35;;;;;;;32.80;31.40;;;33.10;21.10;;;;;;4988162;28;20254;-89
2023/06/16 12:25:03;;;;;;;32.50;31.25;;;33.30;21.00;;;;;;4985648;28;20190;-87
2023/06/16 12:27:33;;;;;;;33.08;31.67;;;33.30;21.00;;;;;;4982056;28;20236;-92
2023/06/16 12:30:02;;;;;;;34.40;33.00;;;33.50;20.90;;;;;;4984679;28;20190;-88
2023/06/16 12:32:30;;;;;;;34.17;32.78;;;33.70;21.00;;;;;;4988525;28;20231;-87
2023/06/16 12:35:00;;;;;;;34.13;32.72;;;33.80;21.20;;;;;;4989008;28;20197;-88
2023/06/16 12:37:29;;;;;;;32.67;31.02;;;33.80;21.00;;;;;;4984695;28;21365;-88